createdAt,value
2022-12-03T00:00:00.627Z,6.69
2022-12-03T00:02:27.769Z,6.66
2022-12-03T00:04:54.984Z,6.94
2022-12-03T00:07:22.224Z,7.03
2022-12-03T00:09:49.128Z,6.21
2022-12-03T00:12:16.198Z,6.56
2022-12-03T00:14:52.505Z,6.85
2022-12-03T00:17:19.586Z,6.80
2022-12-03T00:19:46.635Z,6.36
2022-12-03T00:22:13.820Z,6.33
2022-12-03T00:24:40.751Z,6.17
2022-12-03T00:27:07.874Z,6.63
2022-12-03T00:29:34.992Z,6.63
2022-12-03T00:32:02.189Z,6.68
2022-12-03T00:34:29.843Z,6.73
2022-12-03T00:36:56.749Z,6.40
2022-12-03T00:39:23.840Z,6.48
2022-12-03T00:41:51.617Z,6.33
2022-12-03T00:44:18.687Z,5.79
2022-12-03T00:46:45.775Z,5.93
2022-12-03T00:49:12.919Z,6.05
2022-12-03T00:51:39.996Z,5.68
2022-12-03T00:54:06.930Z,5.99
2022-12-03T00:56:34.398Z,6.37
2022-12-03T00:59:01.841Z,6.40
2022-12-03T01:01:29.031Z,6.30
2022-12-03T01:03:56.154Z,6.69
2022-12-03T01:06:23.374Z,6.46
2022-12-03T01:08:50.293Z,6.24
2022-12-03T01:11:36.196Z,6.12
2022-12-03T01:14:08.983Z,6.46
2022-12-03T01:16:36.564Z,6.46
2022-12-03T01:19:05.534Z,5.90
2022-12-03T01:21:33.704Z,5.99
2022-12-03T01:24:01.077Z,5.49
2022-12-03T01:26:28.171Z,5.91
2022-12-03T01:28:55.288Z,5.94
2022-12-03T01:31:40.701Z,5.48
2022-12-03T01:34:07.704Z,5.90
2022-12-03T01:36:34.862Z,5.59
2022-12-03T01:39:03.943Z,5.95
2022-12-03T01:41:32.815Z,5.41
2022-12-03T01:44:01.300Z,5.37
2022-12-03T01:46:37.921Z,5.54
2022-12-03T01:49:05.537Z,5.61
2022-12-03T01:51:32.493Z,5.87
2022-12-03T01:54:01.000Z,6.17
2022-12-03T01:56:28.466Z,6.24
2022-12-03T01:58:55.431Z,5.94
2022-12-03T02:01:22.468Z,5.58
2022-12-03T02:03:49.794Z,5.74
2022-12-03T02:06:20.588Z,5.62
2022-12-03T02:08:48.976Z,5.83
2022-12-03T02:11:31.676Z,5.63
2022-12-03T02:14:12.982Z,5.66
2022-12-03T02:16:41.932Z,6.00
2022-12-03T02:19:24.732Z,5.95
2022-12-03T02:22:10.571Z,5.93
2022-12-03T02:25:06.984Z,6.01
2022-12-03T02:27:33.985Z,6.14
2022-12-03T02:30:00.931Z,5.88
2022-12-03T02:32:28.076Z,5.96
2022-12-03T02:34:55.378Z,5.90
2022-12-03T02:37:32.752Z,5.78
2022-12-03T02:40:09.160Z,5.57
2022-12-03T02:42:37.204Z,5.59
2022-12-03T02:45:19.145Z,5.96
2022-12-03T02:47:58.973Z,5.90
2022-12-03T02:50:32.282Z,5.80
2022-12-03T02:53:04.826Z,6.02
2022-12-03T02:55:37.076Z,5.90
2022-12-03T02:58:05.857Z,5.83
2022-12-03T03:00:35.551Z,5.42
2022-12-03T03:03:04.510Z,5.15
2022-12-03T03:05:35.970Z,5.13
2022-12-03T03:08:04.114Z,5.55
2022-12-03T03:10:33.522Z,5.63
2022-12-03T03:13:07.537Z,5.47
2022-12-03T03:15:38.064Z,5.62
2022-12-03T03:18:08.515Z,5.54
2022-12-03T03:20:36.711Z,5.03
2022-12-03T03:23:14.466Z,5.30
2022-12-03T03:25:49.568Z,5.04
2022-12-03T03:28:17.528Z,5.30
2022-12-03T03:30:45.282Z,5.02
2022-12-03T03:33:15.480Z,5.47
2022-12-03T03:35:45.163Z,5.39
2022-12-03T03:38:12.783Z,5.58
2022-12-03T03:40:39.972Z,5.35
2022-12-03T03:43:07.835Z,5.34
2022-12-03T03:45:35.188Z,5.46
2022-12-03T03:48:02.319Z,5.48
2022-12-03T03:50:32.101Z,5.38
2022-12-03T03:53:00.997Z,5.30
2022-12-03T03:55:29.089Z,5.07
2022-12-03T03:57:56.417Z,5.17
2022-12-03T04:00:23.918Z,4.85
2022-12-03T04:02:53.730Z,4.60
2022-12-03T04:05:24.029Z,4.92
2022-12-03T04:07:53.339Z,5.16
2022-12-03T04:10:38.763Z,5.00
2022-12-03T04:13:06.480Z,4.73
2022-12-03T04:15:33.463Z,4.89
2022-12-03T04:18:19.665Z,5.23
2022-12-03T04:20:47.133Z,4.65
2022-12-03T04:23:14.178Z,4.82
2022-12-03T04:25:59.956Z,4.47
2022-12-03T04:28:48.500Z,4.94
2022-12-03T04:31:33.906Z,4.83
2022-12-03T04:34:19.376Z,4.56
2022-12-03T04:36:47.041Z,5.50
2022-12-03T04:39:15.578Z,5.04
2022-12-03T04:41:43.278Z,5.35
2022-12-03T04:44:29.251Z,5.19
2022-12-03T04:46:56.299Z,5.07
2022-12-03T04:49:23.752Z,5.15
2022-12-03T04:51:50.715Z,4.94
2022-12-03T04:54:17.883Z,4.67
2022-12-03T04:56:45.098Z,4.98
2022-12-03T04:59:15.992Z,5.59
2022-12-03T05:01:44.719Z,5.04
2022-12-03T05:04:13.523Z,5.18
2022-12-03T05:06:42.047Z,5.48
2022-12-03T05:09:09.973Z,5.41
2022-12-03T05:11:37.166Z,5.47
2022-12-03T05:14:04.639Z,5.34
2022-12-03T05:16:34.516Z,5.66
2022-12-03T05:19:02.069Z,5.49
2022-12-03T05:21:29.264Z,4.85
2022-12-03T05:23:57.189Z,5.40
2022-12-03T05:26:24.230Z,5.11
2022-12-03T05:28:51.453Z,5.64
2022-12-03T05:31:18.464Z,5.19
2022-12-03T05:33:45.532Z,5.27
2022-12-03T05:36:13.155Z,5.12
2022-12-03T05:41:46.370Z,5.30
2022-12-03T05:44:20.101Z,4.90
2022-12-03T05:46:50.307Z,5.02
2022-12-03T05:49:17.594Z,5.32
2022-12-03T05:51:44.587Z,5.31
2022-12-03T05:54:11.764Z,5.41
2022-12-03T05:56:38.720Z,5.96
2022-12-03T05:59:05.939Z,5.16
2022-12-03T06:01:33.095Z,5.40
2022-12-03T06:04:00.274Z,5.40
2022-12-03T06:06:27.304Z,5.36
2022-12-03T06:08:54.484Z,5.60
2022-12-03T06:11:24.499Z,5.31
2022-12-03T06:13:52.307Z,5.19
2022-12-03T06:16:19.587Z,5.22
2022-12-03T06:18:46.556Z,5.23
2022-12-03T06:21:13.719Z,4.95
2022-12-03T06:23:44.708Z,5.13
2022-12-03T06:26:12.860Z,5.16
2022-12-03T06:28:42.265Z,5.57
2022-12-03T06:31:10.058Z,4.88
2022-12-03T06:33:37.230Z,4.89
2022-12-03T06:36:06.520Z,5.13
2022-12-03T06:38:33.771Z,4.89
2022-12-03T06:41:00.803Z,4.94
2022-12-03T06:43:27.935Z,4.56
2022-12-03T06:45:55.224Z,5.04
2022-12-03T06:48:22.447Z,4.79
2022-12-03T06:50:49.458Z,5.03
2022-12-03T06:53:17.315Z,4.63
2022-12-03T06:55:44.500Z,4.68
2022-12-03T06:58:11.614Z,4.50
2022-12-03T07:00:38.592Z,4.61
2022-12-03T07:03:08.401Z,4.66
2022-12-03T07:05:35.519Z,4.35
2022-12-03T07:08:03.684Z,4.87
2022-12-03T07:10:31.138Z,4.17
2022-12-03T07:12:58.109Z,4.77
2022-12-03T07:15:25.371Z,5.10
2022-12-03T07:17:52.451Z,4.73
2022-12-03T07:20:20.046Z,4.31
2022-12-03T07:22:47.202Z,4.87
2022-12-03T07:25:19.515Z,5.08
2022-12-03T07:27:49.983Z,4.34
2022-12-03T07:30:17.214Z,4.84
2022-12-03T07:32:45.342Z,5.16
2022-12-03T07:35:12.310Z,5.18
2022-12-03T07:37:40.323Z,5.20
2022-12-03T07:40:08.811Z,5.46
2022-12-03T07:42:36.114Z,5.31
2022-12-03T07:45:04.123Z,4.76
2022-12-03T07:47:31.505Z,4.67
2022-12-03T07:49:59.022Z,4.56
2022-12-03T07:52:27.180Z,4.62
2022-12-03T07:54:54.305Z,4.70
2022-12-03T07:57:23.792Z,4.43
2022-12-03T07:59:50.768Z,4.66
2022-12-03T08:02:21.419Z,4.67
2022-12-03T08:04:49.008Z,4.96
2022-12-03T08:07:17.664Z,5.05
2022-12-03T08:09:44.771Z,4.84
2022-12-03T08:12:40.302Z,5.71
2022-12-03T08:15:23.932Z,4.68
2022-12-03T08:18:00.486Z,4.81
2022-12-03T08:20:36.549Z,4.61
2022-12-03T08:23:20.763Z,4.94
2022-12-03T08:25:49.485Z,4.95
2022-12-03T08:28:23.576Z,4.95
2022-12-03T08:31:19.823Z,4.79
2022-12-03T08:33:50.967Z,4.90
2022-12-03T08:36:25.309Z,4.69
2022-12-03T08:39:25.659Z,5.15
2022-12-03T08:42:23.183Z,5.16
2022-12-03T08:44:50.140Z,5.15
2022-12-03T08:47:21.723Z,5.48
2022-12-03T08:50:17.584Z,4.67
2022-12-03T08:52:44.755Z,5.20
2022-12-03T08:55:37.008Z,5.02
2022-12-03T08:58:23.494Z,4.09
2022-12-03T09:01:24.418Z,4.76
2022-12-03T09:03:55.236Z,4.75
2022-12-03T09:06:22.989Z,5.10
2022-12-03T09:08:50.341Z,4.75
2022-12-03T09:11:17.364Z,4.76
2022-12-03T09:13:45.309Z,5.31
2022-12-03T09:16:12.272Z,4.97
2022-12-03T09:18:39.639Z,5.52
2022-12-03T09:21:06.900Z,5.14
2022-12-03T09:23:33.869Z,4.85
2022-12-03T09:26:00.988Z,5.03
2022-12-03T09:28:27.950Z,5.22
2022-12-03T09:30:55.177Z,5.48
2022-12-03T09:33:22.346Z,5.39
2022-12-03T09:35:49.372Z,5.34
2022-12-03T09:38:16.467Z,4.77
2022-12-03T09:40:43.639Z,5.27
2022-12-03T09:43:12.511Z,5.15
2022-12-03T09:45:39.705Z,5.12
2022-12-03T09:48:07.129Z,5.20
2022-12-03T09:50:34.463Z,5.71
2022-12-03T09:53:04.027Z,5.64
2022-12-03T09:55:31.625Z,4.34
2022-12-03T09:58:18.986Z,5.25
2022-12-03T10:00:52.307Z,4.52
2022-12-03T10:03:29.459Z,4.46
2022-12-03T10:05:58.495Z,4.77
2022-12-03T10:08:32.969Z,4.60
2022-12-03T10:11:00.046Z,4.67
2022-12-03T10:13:30.808Z,5.14
2022-12-03T10:16:16.444Z,5.50
2022-12-03T10:18:51.405Z,5.63
2022-12-03T10:21:32.390Z,5.47
2022-12-03T10:24:28.920Z,5.37
2022-12-03T10:27:02.462Z,5.26
2022-12-03T10:29:34.686Z,5.41
2022-12-03T10:32:10.400Z,5.25
2022-12-03T10:34:42.559Z,4.82
2022-12-03T10:37:22.858Z,5.04
2022-12-03T10:40:09.359Z,4.86
2022-12-03T10:42:41.510Z,4.92
2022-12-03T10:45:26.506Z,5.81
2022-12-03T10:48:27.349Z,4.90
2022-12-03T10:51:10.524Z,5.16
2022-12-03T10:53:40.546Z,5.47
2022-12-03T10:56:15.054Z,5.68
2022-12-03T10:58:44.392Z,4.98
2022-12-03T11:01:25.048Z,4.86
2022-12-03T11:03:53.839Z,5.29
2022-12-03T11:06:23.378Z,5.16
2022-12-03T11:08:58.365Z,5.09
2022-12-03T11:11:31.496Z,5.17
2022-12-03T11:14:03.046Z,5.49
2022-12-03T11:16:42.139Z,5.16
2022-12-03T11:19:39.156Z,5.68
2022-12-03T11:22:06.185Z,5.47
2022-12-03T11:24:36.468Z,4.86
2022-12-03T11:27:03.327Z,4.50
2022-12-03T11:29:54.927Z,4.97
2022-12-03T11:32:42.798Z,4.76
2022-12-03T11:35:24.651Z,4.86
2022-12-03T11:37:52.290Z,4.60
2022-12-03T11:40:19.123Z,4.99
2022-12-03T11:42:48.343Z,4.94
2022-12-03T11:45:36.791Z,5.54
2022-12-03T11:48:15.544Z,5.41
2022-12-03T11:50:53.083Z,4.88
2022-12-03T11:53:31.571Z,4.70
2022-12-03T11:56:11.354Z,5.19
2022-12-03T11:58:42.790Z,4.50
2022-12-03T12:01:10.190Z,5.55
2022-12-03T12:03:43.855Z,4.95
2022-12-03T12:06:18.200Z,4.80
2022-12-03T12:08:51.289Z,4.81
2022-12-03T12:11:33.672Z,4.98
2022-12-03T12:14:03.454Z,5.65
2022-12-03T12:16:53.738Z,5.84
2022-12-03T12:19:41.354Z,5.61
2022-12-03T12:22:14.444Z,6.11
2022-12-03T12:24:43.440Z,5.59
2022-12-03T12:27:24.120Z,4.92
2022-12-03T12:29:58.486Z,5.50
2022-12-03T12:32:30.579Z,5.38
2022-12-03T12:35:17.730Z,5.74
2022-12-03T12:37:59.212Z,5.72
2022-12-03T12:40:31.874Z,5.99
2022-12-03T12:43:14.221Z,5.70
2022-12-03T12:45:44.217Z,4.99
2022-12-03T12:48:30.964Z,4.82
2022-12-03T12:51:14.642Z,5.41
2022-12-03T12:53:45.209Z,5.07
2022-12-03T12:56:32.022Z,5.41
2022-12-03T12:59:16.664Z,6.04
2022-12-03T13:01:47.752Z,5.08
2022-12-03T13:04:24.032Z,5.67
2022-12-03T13:06:54.434Z,5.18
2022-12-03T13:09:24.912Z,5.89
2022-12-03T13:12:04.156Z,5.24
2022-12-03T13:14:37.130Z,5.25
2022-12-03T13:17:18.910Z,5.51
2022-12-03T13:19:49.310Z,5.51
2022-12-03T13:22:22.425Z,5.12
2022-12-03T13:24:56.145Z,4.79
2022-12-03T13:27:30.982Z,5.47
2022-12-03T13:30:15.802Z,4.81
2022-12-03T13:32:43.670Z,5.27
2022-12-03T13:35:10.508Z,5.11
2022-12-03T13:37:38.519Z,5.56
2022-12-03T13:40:28.885Z,5.78
2022-12-03T13:42:56.957Z,5.15
2022-12-03T13:45:24.830Z,4.98
2022-12-03T13:48:31.762Z,5.36
2022-12-03T13:51:14.332Z,5.17
2022-12-03T13:53:41.516Z,5.42
2022-12-03T13:56:29.073Z,5.91
2022-12-03T13:58:59.497Z,5.76
2022-12-03T14:01:27.795Z,5.46
2022-12-03T14:03:54.851Z,5.36
2022-12-03T14:06:22.168Z,5.50
2022-12-03T14:08:49.381Z,5.49
2022-12-03T14:11:34.490Z,5.89
2022-12-03T14:14:01.833Z,5.67
2022-12-03T14:16:29.065Z,6.10
2022-12-03T14:18:56.195Z,6.05
2022-12-03T14:21:23.149Z,5.94
2022-12-03T14:23:50.138Z,5.97
2022-12-03T14:26:17.186Z,5.46
2022-12-03T14:28:44.176Z,5.94
2022-12-03T14:31:11.591Z,6.11
2022-12-03T14:33:38.757Z,5.00
2022-12-03T14:36:06.257Z,5.49
2022-12-03T14:38:33.302Z,5.32
2022-12-03T14:41:00.254Z,6.18
2022-12-03T14:43:27.218Z,6.37
2022-12-03T14:45:54.315Z,6.46
2022-12-03T14:48:21.474Z,6.64
2022-12-03T14:50:48.496Z,6.62
2022-12-03T14:53:15.735Z,6.58
2022-12-03T14:55:42.858Z,5.66
2022-12-03T14:58:10.015Z,6.37
2022-12-03T15:00:37.007Z,5.87
2022-12-03T15:03:04.200Z,5.80
2022-12-03T15:05:31.235Z,6.18
2022-12-03T15:07:58.257Z,6.32
2022-12-03T15:10:25.222Z,5.81
2022-12-03T15:12:52.177Z,5.64
2022-12-03T15:15:19.111Z,5.85
2022-12-03T15:17:47.660Z,6.04
2022-12-03T15:20:15.295Z,6.00
2022-12-03T15:22:42.900Z,6.09
2022-12-03T15:25:10.428Z,6.43
2022-12-03T15:27:38.081Z,6.57
2022-12-03T15:30:06.966Z,6.59
2022-12-03T15:32:34.573Z,6.42
2022-12-03T15:35:01.880Z,6.46
2022-12-03T15:37:29.446Z,6.60
2022-12-03T15:39:56.843Z,6.49
2022-12-03T15:42:24.005Z,6.46
2022-12-03T15:44:50.929Z,5.83
2022-12-03T15:47:18.166Z,6.08
2022-12-03T15:49:45.328Z,6.54
2022-12-03T15:52:12.488Z,6.13
2022-12-03T15:54:39.467Z,6.05
2022-12-03T15:57:06.592Z,6.16
2022-12-03T15:59:33.586Z,6.40
2022-12-03T16:02:02.760Z,6.53
2022-12-03T16:04:29.783Z,6.51
2022-12-03T16:06:56.739Z,6.47
2022-12-03T16:09:27.619Z,6.56
2022-12-03T16:11:55.434Z,5.95
2022-12-03T16:14:22.384Z,5.97
2022-12-03T16:16:49.537Z,5.79
2022-12-03T16:19:16.497Z,6.32
2022-12-03T16:21:43.650Z,6.42
2022-12-03T16:24:10.944Z,6.45
2022-12-03T16:26:37.965Z,6.45
2022-12-03T16:29:04.950Z,6.36
2022-12-03T16:31:32.445Z,6.56
2022-12-03T16:33:59.431Z,6.37
2022-12-03T16:36:29.107Z,6.46
2022-12-03T16:38:56.083Z,6.57
2022-12-03T16:41:23.406Z,6.65
2022-12-03T16:43:56.129Z,6.67
2022-12-03T16:46:26.467Z,6.56
2022-12-03T16:48:58.985Z,6.39
2022-12-03T16:51:28.474Z,6.39
2022-12-03T16:53:55.684Z,6.23
2022-12-03T16:56:22.994Z,6.42
2022-12-03T16:58:49.989Z,6.15
2022-12-03T17:01:17.183Z,5.88
2022-12-03T17:03:44.274Z,6.36
2022-12-03T17:06:11.444Z,6.30
2022-12-03T17:08:39.709Z,5.95
2022-12-03T17:11:08.328Z,5.81
2022-12-03T17:13:35.348Z,5.91
2022-12-03T17:16:02.454Z,6.36
2022-12-03T17:18:29.468Z,6.56
2022-12-03T17:20:56.607Z,6.51
2022-12-03T17:23:23.718Z,6.17
2022-12-03T17:25:50.694Z,6.57
2022-12-03T17:28:17.864Z,6.46
2022-12-03T17:30:45.708Z,6.51
2022-12-03T17:33:12.971Z,6.54
2022-12-03T17:35:39.976Z,6.46
2022-12-03T17:38:07.147Z,6.41
2022-12-03T17:40:34.122Z,6.32
2022-12-03T17:43:01.500Z,6.35
2022-12-03T17:45:28.808Z,6.53
2022-12-03T17:47:56.027Z,6.59
2022-12-03T17:50:25.137Z,6.57
2022-12-03T17:52:54.077Z,6.66
2022-12-03T17:55:31.025Z,6.69
2022-12-03T17:58:04.354Z,6.60
2022-12-03T18:00:32.227Z,6.28
2022-12-03T18:02:59.195Z,6.34
2022-12-03T18:05:26.311Z,6.28
2022-12-03T18:07:53.484Z,5.89
2022-12-03T18:10:20.519Z,6.49
2022-12-03T18:12:47.674Z,6.56
2022-12-03T18:15:14.826Z,6.58
2022-12-03T18:17:41.980Z,6.59
2022-12-03T18:20:09.246Z,6.23
2022-12-03T18:22:36.900Z,6.15
2022-12-03T18:25:04.932Z,5.79
2022-12-03T18:27:32.230Z,6.08
2022-12-03T18:30:00.677Z,5.52
2022-12-03T18:32:29.593Z,5.95
2022-12-03T18:34:57.994Z,6.53
2022-12-03T18:37:29.704Z,6.74
2022-12-03T18:39:58.303Z,5.98
2022-12-03T18:42:25.967Z,5.98
2022-12-03T18:44:56.033Z,6.16
2022-12-03T18:47:28.982Z,5.75
2022-12-03T18:49:56.577Z,6.03
2022-12-03T18:52:25.074Z,6.37
2022-12-03T18:54:52.821Z,6.57
2022-12-03T18:57:19.938Z,6.57
2022-12-03T18:59:47.121Z,6.65
2022-12-03T19:05:09.148Z,6.69
2022-12-03T19:07:36.865Z,6.62
2022-12-03T19:10:04.628Z,6.64
2022-12-03T19:12:32.170Z,6.56
2022-12-03T19:14:59.307Z,6.57
2022-12-03T19:17:27.555Z,6.63
2022-12-03T19:19:55.626Z,6.20
2022-12-03T19:22:23.814Z,6.13
2022-12-03T19:24:52.178Z,6.51
2022-12-03T19:27:19.324Z,6.66
2022-12-03T19:29:49.412Z,6.59
2022-12-03T19:32:16.563Z,6.48
2022-12-03T19:34:43.714Z,5.82
2022-12-03T19:37:10.838Z,5.94
2022-12-03T19:39:37.824Z,6.12
2022-12-03T19:42:04.996Z,6.35
2022-12-03T19:44:32.018Z,6.24
2022-12-03T19:46:59.168Z,5.92
2022-12-03T19:49:26.502Z,6.34
2022-12-03T19:51:53.752Z,6.21
2022-12-03T19:54:20.808Z,5.85
2022-12-03T19:56:47.842Z,6.42
2022-12-03T19:59:17.376Z,6.61
2022-12-03T20:01:44.489Z,5.79
2022-12-03T20:04:12.696Z,6.03
2022-12-03T20:06:40.444Z,6.52
2022-12-03T20:09:17.195Z,6.40
2022-12-03T20:11:45.989Z,5.94
2022-12-03T20:14:16.067Z,6.01
2022-12-03T20:16:45.111Z,6.31
2022-12-03T20:19:17.996Z,6.32
2022-12-03T20:21:45.507Z,5.95
2022-12-03T20:24:19.258Z,5.90
2022-12-03T20:26:46.353Z,5.74
2022-12-03T20:29:13.829Z,6.03
2022-12-03T20:31:40.869Z,6.08
2022-12-03T20:34:11.173Z,5.51
2022-12-03T20:36:42.298Z,6.04
2022-12-03T20:39:10.720Z,5.94
2022-12-03T20:41:38.290Z,6.13
2022-12-03T20:44:07.538Z,6.37
2022-12-03T20:46:34.811Z,5.69
2022-12-03T20:49:02.216Z,5.91
2022-12-03T20:51:31.062Z,6.31
2022-12-03T20:54:00.702Z,5.42
2022-12-03T20:56:35.653Z,5.75
2022-12-03T20:59:06.753Z,6.28
2022-12-03T21:01:36.029Z,6.51
2022-12-03T21:04:05.161Z,6.24
2022-12-03T21:06:35.960Z,5.78
2022-12-03T21:09:07.153Z,5.93
2022-12-03T21:11:35.987Z,5.48
2022-12-03T21:14:04.236Z,5.98
2022-12-03T21:17:05.665Z,6.36
2022-12-03T21:19:23.160Z,6.37
2022-12-03T21:21:50.166Z,5.84
2022-12-03T21:24:17.548Z,6.25
2022-12-03T21:26:44.534Z,5.87
2022-12-03T21:29:11.683Z,6.29
2022-12-03T21:31:40.041Z,5.71
2022-12-03T21:34:08.627Z,6.15
2022-12-03T21:36:36.108Z,5.68
2022-12-03T21:39:04.301Z,4.99
2022-12-03T21:41:31.929Z,5.20
2022-12-03T21:43:59.106Z,5.66
2022-12-03T21:47:11.089Z,5.26
2022-12-03T21:49:15.323Z,5.42
2022-12-03T21:51:42.315Z,5.62
2022-12-03T21:54:09.414Z,5.57
2022-12-03T21:56:36.535Z,5.52
2022-12-03T21:59:03.999Z,4.71
2022-12-03T22:01:31.206Z,4.84
2022-12-03T22:03:59.208Z,5.24
2022-12-03T22:06:27.215Z,4.76
2022-12-03T22:08:54.269Z,4.66
2022-12-03T22:11:24.374Z,5.13
2022-12-03T22:13:51.572Z,5.15
2022-12-03T22:16:21.296Z,5.00
2022-12-03T22:18:48.962Z,4.51
2022-12-03T22:21:19.747Z,4.97
2022-12-03T22:23:47.480Z,4.82
2022-12-03T22:26:17.793Z,5.20
2022-12-03T22:28:47.453Z,4.91
2022-12-03T22:31:16.415Z,4.59
2022-12-03T22:33:51.280Z,4.64
2022-12-03T22:36:21.599Z,4.59
2022-12-03T22:38:50.764Z,4.77
2022-12-03T22:41:19.247Z,5.25
2022-12-03T22:43:47.282Z,5.02
2022-12-03T22:46:16.150Z,4.90
2022-12-03T22:48:45.633Z,4.61
2022-12-03T22:51:23.009Z,5.18
2022-12-03T22:53:59.110Z,4.70
2022-12-03T22:56:27.980Z,4.84
2022-12-03T22:58:55.612Z,5.44
2022-12-03T23:01:26.442Z,4.74
2022-12-03T23:03:53.709Z,5.05
2022-12-03T23:06:21.889Z,5.46
2022-12-03T23:08:49.557Z,5.04
2022-12-03T23:11:19.979Z,4.99
2022-12-03T23:13:48.475Z,5.08
2022-12-03T23:16:23.959Z,5.35
2022-12-03T23:18:51.313Z,5.05
2022-12-03T23:21:29.927Z,5.29
2022-12-03T23:24:00.399Z,4.45
2022-12-03T23:26:28.772Z,5.02
2022-12-03T23:28:56.010Z,5.48
2022-12-03T23:31:24.959Z,5.18
2022-12-03T23:33:53.004Z,4.89
2022-12-03T23:36:21.325Z,4.97
2022-12-03T23:38:48.850Z,4.90
2022-12-03T23:41:19.939Z,4.81
2022-12-03T23:43:47.739Z,5.18
2022-12-03T23:46:19.427Z,5.55
2022-12-03T23:48:46.780Z,5.55
2022-12-03T23:51:17.568Z,5.16
2022-12-03T23:53:45.086Z,5.42
2022-12-03T23:56:19.681Z,5.37
2022-12-03T23:58:46.838Z,4.77
